Map

Track Data

SID SEASON NUMBER BASIN SUBBASIN NAME ISO_TIME NATURE LAT LON WMO_WIND WMO_PRES WMO_AGENCY TRACK_TYPE DIST2LAND LANDFALL IFLAG USA_AGENCY USA_ATCF_ID USA_LAT USA_LON USA_RECORD USA_STATUS USA_WIND USA_PRES USA_SSHS USA_R34_NE USA_R34_SE USA_R34_SW USA_R34_NW USA_R50_NE USA_R50_SE USA_R50_SW USA_R50_NW USA_R64_NE USA_R64_SE USA_R64_SW USA_R64_NW USA_POCI USA_ROCI USA_RMW USA_EYE TOKYO_LAT TOKYO_LON TOKYO_GRADE TOKYO_WIND TOKYO_PRES TOKYO_R50_DIR TOKYO_R50_LONG TOKYO_R50_SHORT TOKYO_R30_DIR TOKYO_R30_LONG TOKYO_R30_SHORT TOKYO_LAND CMA_LAT CMA_LON CMA_CAT CMA_WIND CMA_PRES HKO_LAT HKO_LON HKO_CAT HKO_WIND HKO_PRES NEWDELHI_LAT NEWDELHI_LON NEWDELHI_GRADE NEWDELHI_WIND NEWDELHI_PRES NEWDELHI_CI NEWDELHI_DP NEWDELHI_POCI REUNION_LAT REUNION_LON REUNION_TYPE REUNION_WIND REUNION_PRES REUNION_TNUM REUNION_CI REUNION_RMW REUNION_R34_NE REUNION_R34_SE REUNION_R34_SW REUNION_R34_NW REUNION_R50_NE REUNION_R50_SE REUNION_R50_SW REUNION_R50_NW REUNION_R64_NE REUNION_R64_SE REUNION_R64_SW REUNION_R64_NW BOM_LAT BOM_LON BOM_TYPE BOM_WIND BOM_PRES BOM_TNUM BOM_CI BOM_RMW BOM_R34_NE BOM_R34_SE BOM_R34_SW BOM_R34_NW BOM_R50_NE BOM_R50_SE BOM_R50_SW BOM_R50_NW BOM_R64_NE BOM_R64_SE BOM_R64_SW BOM_R64_NW BOM_ROCI BOM_POCI BOM_EYE BOM_POS_METHOD BOM_PRES_METHOD NADI_LAT NADI_LON NADI_CAT NADI_WIND NADI_PRES WELLINGTON_LAT WELLINGTON_LON WELLINGTON_WIND WELLINGTON_PRES DS824_LAT DS824_LON DS824_STAGE DS824_WIND DS824_PRES TD9636_LAT TD9636_LON TD9636_STAGE TD9636_WIND TD9636_PRES TD9635_LAT TD9635_LON TD9635_WIND TD9635_PRES TD9635_ROCI NEUMANN_LAT NEUMANN_LON NEUMANN_CLASS NEUMANN_WIND NEUMANN_PRES MLC_LAT MLC_LON MLC_CLASS MLC_WIND MLC_PRES USA_GUST BOM_GUST BOM_GUST_PER REUNION_GUST REUNION_GUST_PER USA_SEAHGT USA_SEARAD_NE USA_SEARAD_SE USA_SEARAD_SW USA_SEARAD_NW STORM_SPEED STORM_DIR
1956015S12128 1956 4 SI WA NOT_NAMED 1956-01-14 23:00:00 NR -12.1000 128.200 main 209 204 __________O___ -1 -12.1000 128.200 7 14 247
1956015S12128 1956 4 SI WA NOT_NAMED 1956-01-15 00:00:00 TS -12.1892 127.987 main 204 158 O________OP___ jtwc_sh SH091956 -12.2000 128.000 -1 -12.2000 128.000 TC 25 -12.1784 127.974 7 14 249
1956015S12128 1956 4 SI WA NOT_NAMED 1956-01-15 03:00:00 TS -12.4339 127.293 main 158 125 P________PP___ SH091956 -12.4454 127.290 -1 -12.4454 127.290 TC 25 -12.4186 127.296 7 14 250
1956015S12128 1956 4 SI WA NOT_NAMED 1956-01-15 06:00:00 TS -12.6915 126.608 main 127 112 O________OP___ jtwc_sh SH091956 -12.7000 126.600 -1 -12.7000 126.600 TC 25 -12.6786 126.620 7 14 248
1956015S12128 1956 4 SI WA NOT_NAMED 1956-01-15 09:00:00 TS -12.9764 125.944 main 114 104 P________PP___ SH091956 -12.9773 125.942 -1 -12.9773 125.942 TC 25 -12.9747 125.946 7 14 245
1956015S12128 1956 4 SI WA NOT_NAMED 1956-01-15 11:00:00 TS -13.1906 125.509 main 110 108 P________PO___ SH091956 -13.1858 125.514 -1 -13.1858 125.514 TC 25 -13.2000 125.500 7 14 242
1956015S12128 1956 4 SI WA NOT_NAMED 1956-01-15 12:00:00 TS -13.3075 125.293 main 116 108 O________OP___ jtwc_sh SH091956 -13.3000 125.300 -1 -13.3000 125.300 TC 25 -13.3225 125.278 7 15 239
1956015S12128 1956 4 SI WA NOT_NAMED 1956-01-15 15:00:00 TS -13.7006 124.635 main 119 116 P________PP___ SH091956 -13.6924 124.643 -1 -13.6924 124.643 TC 25 -13.7170 124.619 7 15 238
1956015S12128 1956 4 SI WA NOT_NAMED 1956-01-15 18:00:00 TS -14.1067 123.994 main 140 140 O________OP___ jtwc_sh SH091956 -14.1000 124.000 -1 -14.1000 124.000 TC 25 -14.1200 123.982 7 15 237
1956015S12128 1956 4 SI WA NOT_NAMED 1956-01-15 21:00:00 TS -14.4886 123.373 main 163 163 P________PP___ SH091956 -14.4874 123.370 -1 -14.4874 123.370 TC 25 -14.4908 123.378 7 14 238
1956015S12128 1956 4 SI WA NOT_NAMED 1956-01-15 23:00:00 TS -14.7058 122.987 main 180 178 P________PO___ SH091956 -14.7088 122.980 -1 -14.7088 122.980 TC 25 -14.7000 123.000 7 13 241
1956015S12128 1956 4 SI WA NOT_NAMED 1956-01-16 00:00:00 TS -14.7929 122.808 main 184 184 O________OP___ jtwc_sh SH091956 -14.8000 122.800 -1 -14.8000 122.800 TC 25 -14.7786 122.824 7 11 247
1956015S12128 1956 4 SI WA NOT_NAMED 1956-01-16 01:00:00 TS -14.8441 122.646 998 bom main 192 181 P_____O__PP___ SH091956 -14.8727 122.635 -1 -14.6000 122.700 998 -14.8727 122.635 TC 25 -14.8481 122.653 7 10 252
1956015S12128 1956 4 SI WA NOT_NAMED 1956-01-16 03:00:00 TS -14.9415 122.335 main 190 179 P_____P__PP___ SH091956 -14.9797 122.335 -1 -14.7425 122.346 -14.9797 122.335 TC 25 -14.9646 122.329 7 9 253
1956015S12128 1956 4 SI WA NOT_NAMED 1956-01-16 06:00:00 TS -15.0708 121.875 main 189 189 O_____P__OP___ jtwc_sh SH091956 -15.1000 121.900 -1 -14.9533 121.819 -15.1000 121.900 TC 25 -15.1004 121.866 7 10 253
1956015S12128 1956 4 SI WA NOT_NAMED 1956-01-16 09:00:00 TS -15.2186 121.382 main 216 216 P_____P__PP___ SH091956 -15.2499 121.407 -1 -15.1574 121.302 -15.2499 121.407 TC 25 -15.2173 121.412 7 10 252
1956015S12128 1956 4 SI WA NOT_NAMED 1956-01-16 11:00:00 TS -15.3220 121.051 main 231 231 P_____P__PO___ SH091956 -15.3500 121.069 -1 -15.2881 120.966 -15.3500 121.069 TC 25 -15.3000 121.100 7 10 252
1956015S12128 1956 4 SI WA NOT_NAMED 1956-01-16 12:00:00 TS -15.3763 120.884 main 239 239 O_____P__OP___ jtwc_sh SH091956 -15.4000 120.900 -1 -15.3515 120.802 -15.4000 120.900 TC 25 -15.3536 120.934 7 10 252
1956015S12128 1956 4 SI WA NOT_NAMED 1956-01-16 15:00:00 TS -15.5342 120.392 main 270 270 P_____P__PP___ SH091956 -15.5423 120.407 -1 -15.5325 120.326 -15.5423 120.407 TC 25 -15.5196 120.426 7 10 251
1956015S12128 1956 4 SI WA NOT_NAMED 1956-01-16 18:00:00 TS -15.6976 119.896 main 300 300 O_____P__OP___ jtwc_sh SH091956 -15.7000 119.900 -1 -15.6970 119.880 -15.7000 119.900 TC 25 -15.6932 119.904 7 10 251
1956015S12128 1956 4 SI WA NOT_NAMED 1956-01-16 21:00:00 TS -15.8754 119.388 main 337 337 P_____P__PP___ SH091956 -15.8924 119.357 -1 -15.8421 119.472 -15.8924 119.357 TC 25 -15.8747 119.366 7 10 250
1956015S12128 1956 4 SI WA NOT_NAMED 1956-01-16 23:00:00 TS -15.9970 119.049 main 370 370 P_____P__PO___ SH091956 -16.0307 118.986 -1 -15.9265 119.225 -16.0307 118.986 TC 25 -16.0000 119.000 7 10 250
1956015S12128 1956 4 SI WA NOT_NAMED 1956-01-17 00:00:00 TS -16.0474 118.901 main 380 376 O_____P__OP___ jtwc_sh SH091956 -16.1000 118.800 -1 -15.9647 119.110 -16.1000 118.800 TC 25 -16.0619 118.820 7 10 250
1956015S12128 1956 4 SI WA NOT_NAMED 1956-01-17 01:00:00 TS -16.1144 118.719 985 bom main 396 396 P_____O__PP___ SH091956 -16.1666 118.619 -1 -16.0000 119.000 985 -16.1666 118.619 TC 25 -16.1246 118.638 7 10 250
1956015S12128 1956 4 SI WA NOT_NAMED 1956-01-17 03:00:00 TS -16.2288 118.395 main 423 423 P_____P__PP___ SH091956 -16.2998 118.257 -1 -16.0628 118.796 -16.2998 118.257 TC 25 -16.2526 118.270 7 10 250
1956015S12128 1956 4 SI WA NOT_NAMED 1956-01-17 06:00:00 TS -16.3998 117.902 main 432 429 O_____P__OP___ jtwc_sh SH091956 -16.5000 117.700 -1 -16.1479 118.504 -16.5000 117.700 TC 25 -16.4512 117.703 7 10 250
1956015S12128 1956 4 SI WA NOT_NAMED 1956-01-17 09:00:00 TS -16.5742 117.385 main 430 427 P_____P__PP___ SH091956 -16.6998 117.122 -1 -16.2395 118.184 -16.6998 117.122 TC 25 -16.6578 117.111 7 11 251
1956015S12128 1956 4 SI WA NOT_NAMED 1956-01-17 11:00:00 TS -16.6951 117.015 main 429 429 P_____P__PO___ SH091956 -16.8332 116.714 -1 -16.3139 117.931 -16.8332 116.714 TC 25 -16.8000 116.700 7 12 251
1956015S12128 1956 4 SI WA NOT_NAMED 1956-01-17 12:00:00 TS -16.7594 116.815 main 425 406 O_____P__OP___ jtwc_sh SH091956 -16.9000 116.500 -1 -16.3572 117.787 -16.9000 116.500 TC 25 -16.8805 116.472 7 13 252
1956015S12128 1956 4 SI WA NOT_NAMED 1956-01-17 15:00:00 TS -16.9629 116.159 main 406 400 P_____P__PP___ SH091956 -17.1000 115.807 -1 -16.5202 117.264 -17.1000 115.807 TC 25 -17.1313 115.757 7 14 252
1956015S12128 1956 4 SI WA NOT_NAMED 1956-01-17 18:00:00 TS -17.1806 115.451 main 400 400 O_____P__OP___ jtwc_sh SH091956 -17.3000 115.100 -1 -16.7469 116.564 -17.3000 115.100 TC 25 -17.3755 115.041 7 15 252
1956015S12128 1956 4 SI WA NOT_NAMED 1956-01-17 21:00:00 TS -17.4220 114.699 main 415 411 P_____P__PP___ SH091956 -17.5226 114.390 -1 -17.0549 115.634 -17.5226 114.390 TC 25 -17.5881 114.381 7 15 251
1956015S12128 1956 4 SI WA NOT_NAMED 1956-01-17 22:10:00 TS -17.5148 114.407 982 bom main 422 419 P_____O__PP___ SH091956 -17.6011 114.138 -1 -17.2000 115.200 982 -17.6011 114.138 TC 25 -17.6569 114.152 7 15 252
1956015S12128 1956 4 SI WA NOT_NAMED 1956-01-17 23:00:00 TS -17.5798 114.200 main 424 424 P_____P__PO___ SH091956 -17.6505 113.974 -1 -17.3182 114.851 981 -17.6505 113.974 TC 25 -17.7000 114.000 7 14 252
1956015S12128 1956 4 SI WA NOT_NAMED 1956-01-18 00:00:00 TS -17.6498 113.968 main 435 431 O_____P__OP___ jtwc_sh SH091956 -17.7000 113.800 -1 -17.4623 114.421 980 -17.7000 113.800 TC 25 -17.7370 113.849 7 13 253
1956015S12128 1956 4 SI WA NOT_NAMED 1956-01-18 01:00:00 TS -17.7085 113.758 980 bom main 437 437 P_____O__PP___ SH091956 -17.7336 113.660 -1 -17.6000 114.000 980 -17.7336 113.660 TC 25 -17.7669 113.713 7 11 255
1956015S12128 1956 4 SI WA NOT_NAMED 1956-01-18 03:00:00 TS -17.7926 113.415 main 452 452 P_____P__PP___ SH091956 -17.7721 113.447 -1 -17.8168 113.290 -17.7721 113.447 TC 25 -17.8093 113.477 7 9 257
1956015S12128 1956 4 SI WA NOT_NAMED 1956-01-18 06:00:00 TS -17.8695 113.010 main 459 459 O_____P__OP___ jtwc_sh SH091956 -17.8000 113.200 -1 -18.0330 112.460 -17.8000 113.200 TC 25 -17.8452 113.180 7 7 260
1956015S12128 1956 4 SI WA NOT_NAMED 1956-01-18 09:00:00 TS -17.9249 112.650 main 470 463 P_____P__PP___ SH091956 -17.8424 112.915 -1 -18.1420 111.867 -17.8424 112.915 TC 25 -17.8727 112.902 7 7 261
1956015S12128 1956 4 SI WA NOT_NAMED 1956-01-18 11:00:00 TS -17.9556 112.425 main 467 467 P_____P__PO___ SH091956 -17.8776 112.711 -1 -18.1674 111.576 -17.8776 112.711 TC 25 -17.9000 112.700 7 7 261
1956015S12128 1956 4 SI WA NOT_NAMED 1956-01-18 12:00:00 TS -17.9741 112.309 main 470 470 O_____P__OP___ jtwc_sh SH091956 -17.9000 112.600 -1 -18.1686 111.455 -17.9000 112.600 TC 25 -17.9277 112.579 7 7 260
1956015S12128 1956 4 SI WA NOT_NAMED 1956-01-18 15:00:00 TS -18.0360 111.956 main 483 478 P_____P__PP___ SH091956 -17.9924 112.230 -1 -18.1366 111.168 -17.9924 112.230 TC 25 -18.0224 112.198 7 7 260
1956015S12128 1956 4 SI WA NOT_NAMED 1956-01-18 18:00:00 TS -18.0991 111.583 main 493 493 O_____P__OP___ jtwc_sh SH091956 -18.1000 111.800 -1 -18.0691 110.951 -18.1000 111.800 TC 25 -18.1274 111.783 7 7 261
1956015S12128 1956 4 SI WA NOT_NAMED 1956-01-18 21:00:00 TS -18.1555 111.180 main 506 506 P_____P__PP___ SH091956 -18.1999 111.322 -1 -17.9887 110.748 -18.1999 111.322 TC 25 -18.2333 111.328 7 8 262
1956015S12128 1956 4 SI WA NOT_NAMED 1956-01-18 23:00:00 TS -18.1930 110.887 main 525 525 P_____P__PO___ SH091956 -18.2666 110.978 -1 -17.9389 110.592 -18.2666 110.978 TC 25 -18.3000 111.000 7 9 265
1956015S12128 1956 4 SI WA NOT_NAMED 1956-01-19 00:00:00 TS -18.1929 110.726 main 538 538 O_____P__OP___ jtwc_sh SH091956 -18.3000 110.800 -1 -17.9177 110.501 -18.3000 110.800 TC 25 -18.3270 110.834 7 9 269
1956015S12128 1956 4 SI WA NOT_NAMED 1956-01-19 01:00:00 TS -18.1965 110.557 970 bom main 545 545 P_____O__PP___ SH091956 -18.3359 110.625 -1 -17.9000 110.400 970 4 -18.3359 110.625 TC 25 -18.3528 110.664 7 10 266
1956015S12128 1956 4 SI WA NOT_NAMED 1956-01-19 03:00:00 TS -18.2235 110.204 main 573 573 P_____P__PP___ SH091956 -18.4073 110.265 -1 -17.8770 110.160 -18.4073 110.265 TC 25 -18.4019 110.307 7 11 265
1956015S12128 1956 4 SI WA NOT_NAMED 1956-01-19 06:00:00 TS -18.2714 109.635 main 610 610 O_____P__OP___ jtwc_sh SH091956 -18.5000 109.700 -1 -17.8714 109.711 -18.5000 109.700 TC 25 -18.4729 109.737 7 11 265
1956015S12128 1956 4 SI WA NOT_NAMED 1956-01-19 09:00:00 TS -18.3214 109.049 main 659 659 P_____P__PP___ SH091956 -18.5496 109.130 -1 -17.8955 109.169 -18.5496 109.130 TC 25 -18.5464 109.127 7 11 265
1956015S12128 1956 4 SI WA NOT_NAMED 1956-01-19 11:00:00 TS -18.3571 108.633 main 686 686 P_____P__PO___ SH091956 -18.5800 108.720 -1 -17.9253 108.762 -18.5800 108.720 TC 25 -18.6000 108.700 7 12 265
1956015S12128 1956 4 SI WA NOT_NAMED 1956-01-19 12:00:00 TS -18.3784 108.415 main 703 703 O_____P__OP___ jtwc_sh SH091956 -18.6000 108.500 -1 -17.9437 108.547 -18.6000 108.500 TC 25 -18.6313 108.477 7 13 263
1956015S12128 1956 4 SI WA NOT_NAMED 1956-01-19 15:00:00 TS -18.4586 107.714 main 759 759 P_____P__PP___ SH091956 -18.6926 107.758 -1 -18.0106 107.861 -18.6926 107.758 TC 25 -18.7313 107.779 7 14 263
1956015S12128 1956 4 SI WA NOT_NAMED 1956-01-19 18:00:00 TS -18.5477 106.993 main 823 817 O_____P__OP___ jtwc_sh SH091956 -18.8000 107.000 -1 -18.0907 107.126 -18.8000 107.000 TC 25 -18.8352 107.060 7 14 262
1956015S12128 1956 4 SI WA NOT_NAMED 1956-01-19 21:00:00 TS -18.6543 106.305 main 875 875 P_____P__PP___ SH091956 -18.8998 106.320 -1 -18.1788 106.355 -18.8998 106.320 TC 25 -18.9366 106.351 7 13 258
1956015S12128 1956 4 SI WA NOT_NAMED 1956-01-19 23:00:00 TS -18.7661 105.866 main 906 906 P_____P__PO___ SH091956 -18.9666 105.900 -1 -18.2395 105.830 -18.9666 105.900 TC 25 -19.0000 105.900 7 13 251
1956015S12128 1956 4 SI WA NOT_NAMED 1956-01-20 00:00:00 TS -18.8627 105.667 main 919 919 O_____P__OP___ jtwc_sh SH091956 -19.0000 105.700 -1 -18.2698 105.565 -19.0000 105.700 TC 25 -19.0254 105.694 7 13 239
1956015S12128 1956 4 SI WA NOT_NAMED 1956-01-20 01:00:00 TS -18.9834 105.487 980 bom main 932 932 P_____O__PP___ SH091956 -19.0358 105.508 -1 -18.3000 105.300 980 -19.0358 105.508 TC 25 -19.0495 105.493 7 11 245
1956015S12128 1956 4 SI WA NOT_NAMED 1956-01-20 03:00:00 TS -19.1032 105.130 main 965 965 P________PP___ SH091956 -19.1071 105.142 -1 -19.1071 105.142 TC 25 -19.0955 105.104 7 11 257
1956015S12128 1956 4 SI WA NOT_NAMED 1956-01-20 06:00:00 TS -19.1880 104.580 main 1008 1008 O________OP___ jtwc_sh SH091956 -19.2000 104.600 -1 -19.2000 104.600 TC 25 -19.1640 104.540 7 11 263
1956015S12128 1956 4 SI WA NOT_NAMED 1956-01-20 09:00:00 TS -19.2416 104.004 main 1066 1066 P________PP___ SH091956 -19.2423 104.015 -1 -19.2423 104.015 TC 25 -19.2403 103.981 7 11 264
1956015S12128 1956 4 SI WA NOT_NAMED 1956-01-20 11:00:00 TS -19.2829 103.605 main 1101 1101 P________PO___ SH091956 -19.2744 103.608 -1 -19.2744 103.608 TC 25 -19.3000 103.600 7 12 263
1956015S12128 1956 4 SI WA NOT_NAMED 1956-01-20 12:00:00 TS -19.3092 103.397 main 1121 1121 O________OP___ jtwc_sh SH091956 -19.3000 103.400 -1 -19.3000 103.400 TC 25 -19.3276 103.391 7 12 260
1956015S12128 1956 4 SI WA NOT_NAMED 1956-01-20 15:00:00 TS -19.4294 102.750 main 1186 1186 P________PP___ SH091956 -19.4349 102.750 -1 -19.4349 102.750 TC 25 -19.4185 102.749 7 13 258
1956015S12128 1956 4 SI WA NOT_NAMED 1956-01-20 18:00:00 TS -19.5770 102.102 main 1238 1238 O________OP___ jtwc_sh SH091956 -19.6000 102.100 -1 -19.6000 102.100 TC 25 -19.5309 102.106 7 12 256
1956015S12128 1956 4 SI WA NOT_NAMED 1956-01-20 21:00:00 TS -19.7207 101.481 main 1295 1295 P________PP___ SH091956 -19.7424 101.477 -1 -19.7424 101.477 TC 25 -19.6773 101.487 7 12 255
1956015S12128 1956 4 SI WA NOT_NAMED 1956-01-20 23:00:00 TS -19.8295 101.091 main 1332 1332 P________PO___ SH091956 -19.8442 101.086 -1 -19.8442 101.086 TC 25 -19.8000 101.100 7 11 253
1956015S12128 1956 4 SI WA NOT_NAMED 1956-01-21 00:00:00 TS -19.8863 100.903 main 1349 1349 O________OP___ jtwc_sh SH091956 -19.9000 100.900 -1 -19.9000 100.900 TC 25 -19.8590 100.910 7 11 251
1956015S12128 1956 4 SI WA NOT_NAMED 1956-01-21 03:00:00 TS -20.0631 100.370 main 1394 1394 P________PP___ SH091956 -20.0623 100.370 -1 -20.0623 100.370 TC 25 -20.0645 100.370 7 10 246
1956015S12128 1956 4 SI WA NOT_NAMED 1956-01-21 06:00:00 TS -20.3073 99.8933 main 1440 1440 O________OP___ jtwc_sh SH091956 -20.3000 99.9000 -1 -20.3000 99.9000 TC 25 -20.3220 99.8800 7 10 235
1956015S12128 1956 4 SI WA NOT_NAMED 1956-01-21 09:00:00 TS -20.6512 99.4631 main 1471 1471 P________PP___ SH091956 -20.6549 99.4700 -1 -20.6549 99.4700 TC 25 -20.6437 99.4493 7 11 226
1956015S12128 1956 4 SI WA NOT_NAMED 1956-01-21 11:00:00 TS -20.9298 99.2111 main 1498 1496 P________PO___ SH091956 -20.9447 99.2166 -1 -20.9447 99.2166 TC 25 -20.9000 99.2000 7 11 219
1956015S12128 1956 4 SI WA NOT_NAMED 1956-01-21 12:00:00 TS -21.0812 99.0934 main 1504 1504 O________OP___ jtwc_sh SH091956 -21.1000 99.1000 -1 -21.1000 99.1000 TC 25 -21.0437 99.0803 7 11 213
1956015S12128 1956 4 SI WA NOT_NAMED 1956-01-21 15:00:00 TS -21.5620 98.7694 main 1525 1525 P________PP___ SH091956 -21.5774 98.7699 -1 -21.5774 98.7699 TC 25 -21.5312 98.7685 7 12 208
1956015S12128 1956 4 SI WA NOT_NAMED 1956-01-21 18:00:00 TS -22.0914 98.5058 main 1542 1539 O________OP___ jtwc_sh SH091956 -22.1000 98.5000 -1 -22.1000 98.5000 TC 25 -22.0742 98.5174 7 12 202
1956015S12128 1956 4 SI WA NOT_NAMED 1956-01-21 21:00:00 TS -22.6500 98.2848 main 1551 1549 P________PP___ SH091956 -22.6575 98.2699 -1 -22.6575 98.2699 TC 25 -22.6350 98.3145 7 12 199
1956015S12128 1956 4 SI WA NOT_NAMED 1956-01-21 23:00:00 TS -23.0170 98.1667 main 1553 1553 P________PO___ SH091956 -23.0254 98.1500 -1 -23.0254 98.1500 TC 25 -23.0000 98.2000 7 11 197
1956015S12128 1956 4 SI WA NOT_NAMED 1956-01-22 00:00:00 TS -23.1875 98.1117 main 1560 1557 O________OP___ jtwc_sh SH091956 -23.2000 98.1000 -1 -23.2000 98.1000 TC 25 -23.1625 98.1352 7 10 195
1956015S12128 1956 4 SI WA NOT_NAMED 1956-01-22 03:00:00 TS -23.6510 97.9785 main 1564 1561 P________PP___ SH091956 -23.6574 97.9847 -1 -23.6574 97.9847 TC 25 -23.6381 97.9662 7 9 193
1956015S12128 1956 4 SI WA NOT_NAMED 1956-01-22 06:00:00 TS -24.1018 97.8784 main 1564 1562 O________OP___ jtwc_sh SH091956 -24.1000 97.9000 -1 -24.1000 97.9000 TC 25 -24.1054 97.8351 7 10 191
1956015S12128 1956 4 SI WA NOT_NAMED 1956-01-22 09:00:00 TS -24.5874 97.7756 main 1564 1562 P________PP___ SH091956 -24.5925 97.7925 -1 -24.5925 97.7925 TC 25 -24.5771 97.7416 7 10 190
1956015S12128 1956 4 SI WA NOT_NAMED 1956-01-22 11:00:00 TS -24.9205 97.7184 main 1569 1566 P________PO___ SH091956 -24.9307 97.7276 -1 -24.9307 97.7276 TC 25 -24.9000 97.7000 7 10 189
1956015S12128 1956 4 SI WA NOT_NAMED 1956-01-22 12:00:00 TS -25.0890 97.6924 main 1566 1562 O________OP___ jtwc_sh SH091956 -25.1000 97.7000 -1 -25.1000 97.7000 TC 25 -25.0670 97.6770 7 10 187
1956015S12128 1956 4 SI WA NOT_NAMED 1956-01-22 15:00:00 TS -25.5879 97.6295 main 1569 1564 P________PP___ SH091956 -25.5925 97.6276 -1 -25.5925 97.6276 TC 25 -25.5787 97.6334 7 10 185
1956015S12128 1956 4 SI WA NOT_NAMED 1956-01-22 18:00:00 TS -26.1012 97.6091 main 1564 1560 O________OP___ jtwc_sh SH091956 -26.1000 97.6000 -1 -26.1000 97.6000 TC 25 -26.1037 97.6274 7 11 179
1956015S12128 1956 4 SI WA NOT_NAMED 1956-01-22 21:00:00 TS -26.6413 97.6329 main 1560 1549 P________PP___ SH091956 -26.6425 97.6201 -1 -26.6425 97.6201 TC 25 -26.6390 97.6586 7 11 176
1956015S12128 1956 4 SI WA NOT_NAMED 1956-01-22 23:00:00 TS -27.0094 97.6778 main 1549 1549 P________PO___ SH091956 -27.0140 97.6667 -1 -27.0140 97.6667 TC 25 -27.0000 97.7000 7 11 173
1956015S12128 1956 4 SI WA NOT_NAMED 1956-01-23 00:00:00 TS -27.1950 97.7070 main 1549 1540 O________OP___ jtwc_sh SH091956 -27.2000 97.7000 -1 -27.2000 97.7000 TC 25 -27.1849 97.7211 7 11 169
1956015S12128 1956 4 SI WA NOT_NAMED 1956-01-23 03:00:00 TS -27.7491 97.8317 main 1541 1524 P________PP___ SH091956 -27.7500 97.8423 -1 -27.7500 97.8423 TC 25 -27.7471 97.8106 7 11 168
1956015S12128 1956 4 SI WA NOT_NAMED 1956-01-23 06:00:00 TS -28.3028 97.9782 main 1525 1520 O________OP___ jtwc_sh SH091956 -28.3000 98.0000 -1 -28.3000 98.0000 TC 25 -28.3085 97.9345 7 11 168
1956015S12128 1956 4 SI WA NOT_NAMED 1956-01-23 09:00:00 TS -28.8611 98.0908 main 1522 1516 P________PP___ SH091956 -28.8649 98.0929 -1 -28.8649 98.0929 TC 25 -28.8535 98.0865 7 11 170
1956015S12128 1956 4 SI WA NOT_NAMED 1956-01-23 11:00:00 TS -29.2187 98.1721 main 1518 1518 P________PO___ SH091956 -29.2280 98.1581 -1 -29.2280 98.1581 TC 25 -29.2000 98.2000 7 11 169
1956015S12128 1956 4 SI WA NOT_NAMED 1956-01-23 12:00:00 TS -29.3864 98.2111 main 1521 1510 O________OP___ jtwc_sh SH091956 -29.4000 98.2000 -1 -29.4000 98.2000 TC 25 -29.3593 98.2331 7 10 165
1956015S12128 1956 4 SI WA NOT_NAMED 1956-01-23 15:00:00 TS -29.8478 98.3647 main 1510 1503 P________PP___ SH091956 -29.8650 98.3776 -1 -29.8650 98.3776 TC 25 -29.8134 98.3387 7 10 161
1956015S12128 1956 4 SI WA NOT_NAMED 1956-01-23 18:00:00 TS -30.2833 98.5644 main 1503 1500 O________OP___ jtwc_sh SH091956 -30.3000 98.6000 -1 -30.3000 98.6000 TC 25 -30.2500 98.4931 7 9 159
1956015S12128 1956 4 SI WA NOT_NAMED 1956-01-23 21:00:00 TS -30.7251 98.7619 main 1496 1493 P________PP___ SH091956 -30.7418 98.7689 -1 -30.7418 98.7689 TC 25 -30.6917 98.7481 7 10 155
1956015S12128 1956 4 SI WA NOT_NAMED 1956-01-23 23:00:00 TS -31.0292 98.9719 main 1487 1481 P________PO___ SH091956 -31.0438 98.9578 -1 -31.0438 98.9578 TC 25 -31.0000 99.0000 7 11 146
1956015S12128 1956 4 SI WA NOT_NAMED 1956-01-24 00:00:00 TS -31.1896 99.1281 main 1485 1434 O________OP___ jtwc_sh SH091956 -31.2000 99.1000 -1 -31.2000 99.1000 TC 25 -31.1687 99.1842 7 15 133
1956015S12128 1956 4 SI WA NOT_NAMED 1956-01-24 03:00:00 TS -31.6877 99.8068 main 1434 1349 P________PP___ SH091956 -31.6857 99.7821 -1 -31.6857 99.7821 TC 25 -31.6918 99.8562 7 16 129
1956015S12128 1956 4 SI WA NOT_NAMED 1956-01-24 06:00:00 TS -32.2088 100.607 main 1349 1276 O________OP___ jtwc_sh SH091956 -32.2000 100.600 -1 -32.2000 100.600 TC 25 -32.2264 100.622 7 17 129
1956015S12128 1956 4 SI WA NOT_NAMED 1956-01-24 09:00:00 TS -32.7572 101.363 main 1265 1223 P________PP___ SH091956 -32.7577 101.360 -1 -32.7577 101.360 TC 25 -32.7562 101.369 7 16 132
1956015S12128 1956 4 SI WA NOT_NAMED 1956-01-24 11:00:00 TS -33.1171 101.806 main 1223 1202 P________PO___ SH091956 -33.1256 101.809 -1 -33.1256 101.809 TC 25 -33.1000 101.800 7 15 135
1956015S12128 1956 4 SI WA NOT_NAMED 1956-01-24 12:00:00 TS -33.2871 101.993 main 1202 1160 O________OP___ jtwc_sh SH091956 -33.3000 102.000 -1 -33.3000 102.000 TC 25 -33.2678 101.983 7 12 142
1956015S12128 1956 4 SI WA NOT_NAMED 1956-01-24 15:00:00 TS -33.7645 102.415 main 1159 1128 P________PP___ SH091956 -33.7722 102.418 -1 -33.7722 102.418 TC 25 -33.7568 102.411 7 11 148
1956015S12128 1956 4 SI WA NOT_NAMED 1956-01-24 18:00:00 TS -34.2179 102.698 main 1128 1109 O________OP___ jtwc_sh SH091956 -34.2000 102.700 -1 -34.2000 102.700 TC 25 -34.2299 102.697 7 10 157
1956015S12128 1956 4 SI WA NOT_NAMED 1956-01-24 21:00:00 NR -34.6934 102.892 main 1109 1100 __________P___ SH091956 -1 TC -34.6934 102.892 7 10 162
1956015S12128 1956 4 SI WA NOT_NAMED 1956-01-24 23:00:00 NR -35.0000 103.000 main 1100 __________O___ SH091956 -1 TC -35.0000 103.000 7 10 164

About IBTrACS Database

This database is a web-friendly format of International Best Track Archive for Climate Stewardship (IBTrACS), a global best track data archive curated by NOAA dating back to 1842.

Updated: 2021-11-26